Time;durP1;ratioP1;P1;durP2;ratioP2;P2;SDS_P1;SDS_P2;PMS_P1;PMS_P2;Temp;Humidity;BMP_temperature;BMP_pressure;BME280_temperature;BME280_humidity;BME280_pressure;Samples;Min_cycle;Max_cycle;Signal;HPM_P1;HPM_P2
2023/12/04 00:00:04;;;;;;;36.00;15.68;;;0.00;99.90;;;;;;5031723;28;20338;-69
2023/12/04 00:02:30;;;;;;;40.78;17.38;;;0.00;99.90;;;;;;5032499;28;20140;-69
2023/12/04 00:04:55;;;;;;;41.70;17.83;;;0.00;99.90;;;;;;5033069;28;20102;-68
2023/12/04 00:07:21;;;;;;;43.25;16.90;;;0.00;99.90;;;;;;5043783;28;20421;-71
2023/12/04 00:09:47;;;;;;;45.55;17.25;;;0.00;99.90;;;;;;5037570;28;20198;-68
2023/12/04 00:12:12;;;;;;;44.38;18.27;;;0.00;99.90;;;;;;5035187;28;20127;-69
2023/12/04 00:14:38;;;;;;;39.78;17.08;;;0.00;99.90;;;;;;5042903;28;20045;-69
2023/12/04 00:17:04;;;;;;;41.20;16.08;;;0.00;99.90;;;;;;5044007;28;20045;-69
2023/12/04 00:19:29;;;;;;;41.80;16.48;;;0.00;99.90;;;;;;5028062;28;20638;-68
2023/12/04 00:21:55;;;;;;;44.53;16.73;;;0.00;99.90;;;;;;5031337;28;20676;-69
2023/12/04 00:24:20;;;;;;;36.22;15.45;;;0.00;99.90;;;;;;5041340;28;20090;-67
2023/12/04 00:26:46;;;;;;;38.55;15.90;;;0.00;99.90;;;;;;5037147;28;20167;-68
2023/12/04 00:29:11;;;;;;;42.42;16.15;;;0.00;99.90;;;;;;5030388;28;20081;-70
2023/12/04 00:31:37;;;;;;;40.35;15.93;;;0.00;99.90;;;;;;5035362;28;20069;-69
2023/12/04 00:34:03;;;;;;;39.30;15.60;;;0.00;99.90;;;;;;5020814;28;20075;-69
2023/12/04 00:36:28;;;;;;;43.25;16.05;;;0.00;99.90;;;;;;5041962;28;20434;-71
2023/12/04 00:38:54;;;;;;;44.00;17.27;;;0.00;99.90;;;;;;5031814;28;20025;-73
2023/12/04 00:41:19;;;;;;;43.13;16.27;;;0.00;99.90;;;;;;5033455;28;20158;-69
2023/12/04 00:43:45;;;;;;;38.63;15.60;;;0.00;99.90;;;;;;5034528;28;20036;-69
2023/12/04 00:46:11;;;;;;;42.90;17.15;;;0.00;99.90;;;;;;5032617;28;20123;-69
2023/12/04 00:48:36;;;;;;;42.20;15.90;;;0.00;99.90;;;;;;5033897;28;20111;-69
2023/12/04 00:51:02;;;;;;;34.40;15.63;;;0.00;99.90;;;;;;5028722;28;20033;-70
2023/12/04 00:53:27;;;;;;;40.30;17.30;;;0.00;99.90;;;;;;5043236;28;20132;-70
2023/12/04 00:55:53;;;;;;;39.67;16.65;;;0.00;99.90;;;;;;5044320;28;20057;-69
2023/12/04 00:58:19;;;;;;;39.50;14.60;;;0.00;99.90;;;;;;5028760;28;20120;-72
2023/12/04 01:00:44;;;;;;;40.10;15.88;;;0.00;99.90;;;;;;5013921;28;20029;-73
2023/12/04 01:03:10;;;;;;;40.97;16.67;;;0.00;99.90;;;;;;5025587;28;20036;-70
2023/12/04 01:05:35;;;;;;;36.45;14.65;;;0.00;99.90;;;;;;5036550;28;20048;-71
2023/12/04 01:08:01;;;;;;;39.90;15.77;;;0.00;99.90;;;;;;5030956;28;20033;-71
2023/12/04 01:10:27;;;;;;;38.55;14.48;;;0.00;99.90;;;;;;5039523;28;20056;-69
2023/12/04 01:12:52;;;;;;;40.22;16.05;;;0.00;99.90;;;;;;5031541;28;20033;-71
2023/12/04 01:15:18;;;;;;;37.38;15.02;;;0.00;99.90;;;;;;5038945;28;20443;-70
2023/12/04 01:17:43;;;;;;;37.08;15.45;;;0.00;99.90;;;;;;5027078;28;20049;-71
2023/12/04 01:20:09;;;;;;;40.60;15.05;;;0.00;99.90;;;;;;5044416;28;20044;-69
2023/12/04 01:22:35;;;;;;;44.13;16.60;;;0.00;99.90;;;;;;5021274;28;20091;-72
2023/12/04 01:25:02;;;;;;;39.30;16.08;;;0.00;99.90;;;;;;5037204;28;20056;-69
2023/12/04 01:27:28;;;;;;;35.38;15.38;;;0.00;99.90;;;;;;5037566;28;20046;-70
2023/12/04 01:29:54;;;;;;;42.63;17.00;;;0.00;99.90;;;;;;5031875;28;20186;-69
2023/12/04 01:32:19;;;;;;;39.92;15.52;;;0.00;99.90;;;;;;5039781;28;20041;-71
2023/12/04 01:34:45;;;;;;;40.78;16.02;;;0.00;99.90;;;;;;5033497;28;20037;-69
2023/12/04 01:37:11;;;;;;;42.47;17.50;;;0.00;99.90;;;;;;5046510;28;20168;-71
2023/12/04 01:39:37;;;;;;;42.03;15.95;;;0.00;99.90;;;;;;5024103;28;20112;-69
2023/12/04 01:42:03;;;;;;;39.92;15.93;;;0.00;99.90;;;;;;5034673;28;20222;-71
2023/12/04 01:44:28;;;;;;;37.90;16.10;;;0.00;99.90;;;;;;5031173;28;20136;-71
2023/12/04 01:46:55;;;;;;;38.80;16.00;;;0.00;99.90;;;;;;5032096;28;20038;-70
2023/12/04 01:49:20;;;;;;;39.55;15.65;;;0.00;99.90;;;;;;5029333;28;20063;-68
2023/12/04 01:51:46;;;;;;;44.25;16.55;;;0.00;99.90;;;;;;5025494;28;20762;-68
2023/12/04 01:54:12;;;;;;;43.28;15.43;;;0.00;99.90;;;;;;5036584;28;20535;-68
2023/12/04 01:56:38;;;;;;;39.38;15.73;;;0.00;99.90;;;;;;5018731;28;20033;-70
2023/12/04 01:59:04;;;;;;;40.60;15.38;;;0.00;99.90;;;;;;5035831;28;20186;-70
2023/12/04 02:01:30;;;;;;;42.05;16.27;;;0.00;99.90;;;;;;5029878;28;20131;-70
2023/12/04 02:03:57;;;;;;;39.53;15.38;;;0.00;99.90;;;;;;5038315;28;20143;-69
2023/12/04 02:06:25;;;;;;;40.95;15.68;;;0.00;99.90;;;;;;5023625;28;20046;-68
2023/12/04 02:08:50;;;;;;;37.85;13.90;;;0.00;99.90;;;;;;5029577;28;20072;-68
2023/12/04 02:11:16;;;;;;;36.17;15.57;;;0.00;99.90;;;;;;5027785;28;20077;-69
2023/12/04 02:13:42;;;;;;;36.55;14.93;;;0.00;99.90;;;;;;5028931;28;20045;-67
2023/12/04 02:16:11;;;;;;;41.20;15.82;;;0.00;99.90;;;;;;5026844;28;20044;-68
2023/12/04 02:18:37;;;;;;;39.95;14.77;;;0.00;99.90;;;;;;5033306;28;20191;-65
2023/12/04 02:21:03;;;;;;;39.47;15.30;;;0.00;99.90;;;;;;5028544;28;20037;-67
2023/12/04 02:23:29;;;;;;;40.00;15.52;;;0.00;99.90;;;;;;5028887;28;20535;-69
2023/12/04 02:26:00;;;;;;;44.42;16.67;;;0.00;99.90;;;;;;5031821;28;20034;-67
2023/12/04 02:28:30;;;;;;;42.80;15.50;;;0.00;99.90;;;;;;5027810;28;20095;-67
2023/12/04 02:30:58;;;;;;;38.75;14.02;;;0.00;99.90;;;;;;5031071;28;20037;-67
2023/12/04 02:33:24;;;;;;;46.60;16.33;;;0.10;99.90;;;;;;5028336;28;20768;-66
2023/12/04 02:35:51;;;;;;;38.95;14.57;;;0.00;99.90;;;;;;5030881;28;20163;-66
2023/12/04 02:38:16;;;;;;;38.47;14.65;;;0.10;99.90;;;;;;5033682;28;20034;-67
2023/12/04 02:40:42;;;;;;;40.40;15.38;;;0.10;99.90;;;;;;5031669;28;20144;-66
2023/12/04 02:43:08;;;;;;;40.90;16.13;;;0.10;99.90;;;;;;5026670;28;20382;-67
2023/12/04 02:45:34;;;;;;;36.42;15.30;;;0.00;99.90;;;;;;5036093;28;20068;-66
2023/12/04 02:47:59;;;;;;;37.38;15.07;;;0.00;99.90;;;;;;5036399;28;20215;-66
2023/12/04 02:50:25;;;;;;;38.95;15.55;;;0.10;99.90;;;;;;5042196;28;20517;-65
2023/12/04 02:52:51;;;;;;;43.00;14.82;;;0.10;99.90;;;;;;5034264;28;20103;-67
2023/12/04 02:55:16;;;;;;;36.60;14.52;;;0.10;99.90;;;;;;5036225;28;20067;-68
2023/12/04 02:57:42;;;;;;;41.17;15.45;;;0.10;99.90;;;;;;5041701;28;20437;-66
2023/12/04 03:00:08;;;;;;;37.45;15.45;;;0.10;99.90;;;;;;5036503;28;20113;-67
2023/12/04 03:02:34;;;;;;;35.50;14.32;;;0.10;99.90;;;;;;5032854;28;20072;-68
2023/12/04 03:04:59;;;;;;;36.80;14.93;;;0.10;99.90;;;;;;5031257;28;20045;-66
2023/12/04 03:07:26;;;;;;;34.90;14.57;;;0.10;99.90;;;;;;5022176;28;20041;-68
2023/12/04 03:09:52;;;;;;;35.78;14.10;;;0.10;99.90;;;;;;5028867;28;20041;-67
2023/12/04 03:12:17;;;;;;;35.55;14.50;;;0.10;99.90;;;;;;5029825;28;20083;-65
2023/12/04 03:14:43;;;;;;;29.10;13.52;;;0.10;99.90;;;;;;5034487;28;20042;-67
2023/12/04 03:17:08;;;;;;;36.60;14.40;;;0.10;99.90;;;;;;5032841;28;20041;-67
2023/12/04 03:19:34;;;;;;;39.83;14.50;;;0.10;99.90;;;;;;5028676;28;20037;-68
2023/12/04 03:22:01;;;;;;;38.47;15.13;;;0.10;99.90;;;;;;5013696;28;20414;-66
2023/12/04 03:24:26;;;;;;;42.45;15.65;;;0.10;99.90;;;;;;5034838;28;20065;-66
2023/12/04 03:26:52;;;;;;;36.00;13.85;;;0.10;99.90;;;;;;5040170;28;20072;-68
2023/12/04 03:29:18;;;;;;;36.97;15.02;;;0.10;99.90;;;;;;5028962;28;20251;-66
2023/12/04 03:31:44;;;;;;;37.55;14.90;;;0.20;99.90;;;;;;5031762;28;20048;-67
2023/12/04 03:34:09;;;;;;;42.38;14.85;;;0.20;99.90;;;;;;5025882;28;20037;-68
2023/12/04 03:36:35;;;;;;;34.05;14.32;;;0.20;99.90;;;;;;5026916;28;20041;-66
2023/12/04 03:39:00;;;;;;;39.55;15.95;;;0.20;99.90;;;;;;5029656;28;20151;-66
2023/12/04 03:41:26;;;;;;;38.53;14.43;;;0.10;99.90;;;;;;5015174;28;20432;-66
2023/12/04 03:43:52;;;;;;;34.58;14.43;;;0.20;99.90;;;;;;5037889;28;20033;-68
2023/12/04 03:46:17;;;;;;;38.60;14.38;;;0.20;99.90;;;;;;5038809;28;20043;-65
2023/12/04 03:48:43;;;;;;;39.67;15.10;;;0.20;99.90;;;;;;5033008;28;20071;-66
2023/12/04 03:51:08;;;;;;;40.55;15.25;;;0.20;99.90;;;;;;5049881;28;20573;-67
2023/12/04 03:53:34;;;;;;;33.05;13.65;;;0.20;99.90;;;;;;5040925;28;20143;-66
2023/12/04 03:56:00;;;;;;;34.78;13.95;;;0.20;99.90;;;;;;5044423;28;20743;-65
2023/12/04 03:58:25;;;;;;;36.55;15.25;;;0.20;99.90;;;;;;5039121;28;20061;-68
2023/12/04 04:00:51;;;;;;;36.88;14.55;;;0.20;99.90;;;;;;5044332;28;20075;-67
2023/12/04 04:03:17;;;;;;;37.38;14.10;;;0.20;99.90;;;;;;5044339;28;20048;-68
2023/12/04 04:05:42;;;;;;;30.92;14.70;;;0.20;99.90;;;;;;5035320;28;20468;-65
2023/12/04 04:08:08;;;;;;;40.28;14.82;;;0.20;99.90;;;;;;5034899;28;20095;-66
2023/12/04 04:10:34;;;;;;;34.03;14.10;;;0.20;99.90;;;;;;5032060;28;20120;-67
2023/12/04 04:13:00;;;;;;;40.38;15.13;;;0.20;99.90;;;;;;5027567;28;20047;-66
2023/12/04 04:15:26;;;;;;;36.90;13.52;;;0.20;99.90;;;;;;5028956;28;20153;-67
2023/12/04 04:17:52;;;;;;;32.83;13.38;;;0.20;99.90;;;;;;5030032;28;20049;-69
2023/12/04 04:20:17;;;;;;;34.33;13.73;;;0.20;99.90;;;;;;5020205;28;20468;-67
2023/12/04 04:22:43;;;;;;;36.05;14.45;;;0.20;99.90;;;;;;5041480;28;20033;-67
2023/12/04 04:25:09;;;;;;;38.08;14.98;;;0.30;99.90;;;;;;5031471;28;20041;-69
2023/12/04 04:27:35;;;;;;;37.30;14.38;;;0.20;99.90;;;;;;5031974;28;20773;-66
2023/12/04 04:30:01;;;;;;;33.90;14.10;;;0.20;99.90;;;;;;5042712;28;20132;-69
2023/12/04 04:32:27;;;;;;;38.95;15.02;;;0.20;99.90;;;;;;5032663;28;20044;-66
2023/12/04 04:34:53;;;;;;;32.65;14.75;;;0.20;99.90;;;;;;5037997;28;20029;-66
2023/12/04 04:37:19;;;;;;;41.10;14.07;;;0.20;99.90;;;;;;5043978;28;20053;-65
2023/12/04 04:39:45;;;;;;;38.70;14.75;;;0.20;99.90;;;;;;5039232;28;20033;-68
2023/12/04 04:42:11;;;;;;;33.92;14.60;;;0.20;99.90;;;;;;5037875;28;20371;-66
2023/12/04 04:44:37;;;;;;;33.83;13.32;;;0.20;99.90;;;;;;5031712;28;20053;-68
2023/12/04 04:47:03;;;;;;;34.28;14.68;;;0.20;99.90;;;;;;5041370;28;20446;-67
2023/12/04 04:49:28;;;;;;;36.28;15.07;;;0.20;99.90;;;;;;5031202;28;20151;-68
2023/12/04 04:51:54;;;;;;;33.50;14.38;;;0.20;99.90;;;;;;5027433;28;20038;-65
2023/12/04 04:54:19;;;;;;;34.50;14.20;;;0.20;99.90;;;;;;5029273;28;20120;-67
2023/12/04 04:56:45;;;;;;;34.65;14.45;;;0.20;99.90;;;;;;5030555;28;20072;-67
2023/12/04 04:59:11;;;;;;;29.90;13.95;;;0.20;99.90;;;;;;5030233;28;20029;-67
2023/12/04 05:01:36;;;;;;;34.60;13.73;;;0.20;99.90;;;;;;5041691;28;20049;-68
2023/12/04 05:04:02;;;;;;;32.80;13.25;;;0.20;99.90;;;;;;5041295;28;20052;-66
2023/12/04 05:06:29;;;;;;;31.30;12.60;;;0.20;99.90;;;;;;5038689;28;20081;-67
2023/12/04 05:08:55;;;;;;;35.58;14.30;;;0.20;99.90;;;;;;5036636;28;20045;-67
2023/12/04 05:11:21;;;;;;;33.83;13.55;;;0.20;99.90;;;;;;5043329;28;20036;-66
2023/12/04 05:13:46;;;;;;;35.40;14.57;;;0.20;99.90;;;;;;5042970;28;20059;-68
2023/12/04 05:16:12;;;;;;;28.65;13.80;;;0.20;99.90;;;;;;5042819;28;20139;-66
2023/12/04 05:18:41;;;;;;;35.22;14.75;;;0.20;99.90;;;;;;5030097;28;20048;-66
2023/12/04 05:21:10;;;;;;;34.25;13.85;;;0.20;99.90;;;;;;5034858;28;20033;-67
2023/12/04 05:23:37;;;;;;;38.70;14.13;;;0.20;99.90;;;;;;5033775;28;20115;-68
2023/12/04 05:26:03;;;;;;;31.63;14.73;;;0.20;99.90;;;;;;5042646;28;20046;-65
2023/12/04 05:28:28;;;;;;;30.77;12.90;;;0.20;99.90;;;;;;5025893;28;20068;-68
2023/12/04 05:30:54;;;;;;;30.35;13.23;;;0.20;99.90;;;;;;5036602;28;20059;-68
2023/12/04 05:33:20;;;;;;;33.53;13.25;;;0.20;99.90;;;;;;5044851;28;20043;-66
2023/12/04 05:35:48;;;;;;;31.10;12.25;;;0.20;99.90;;;;;;5035772;28;20037;-68
2023/12/04 05:38:13;;;;;;;33.47;14.18;;;0.20;99.90;;;;;;5041129;28;20048;-68
2023/12/04 05:40:39;;;;;;;31.73;13.90;;;0.20;99.90;;;;;;5029253;28;20030;-66
2023/12/04 05:43:05;;;;;;;29.92;13.02;;;0.20;99.90;;;;;;5029925;28;20124;-68
2023/12/04 05:45:30;;;;;;;31.95;13.43;;;0.20;99.90;;;;;;5019267;28;20124;-67
2023/12/04 05:47:56;;;;;;;31.25;13.18;;;0.20;99.90;;;;;;5029491;28;20754;-67
2023/12/04 05:50:21;;;;;;;30.92;13.10;;;0.20;99.90;;;;;;5034589;28;20037;-68
2023/12/04 05:52:47;;;;;;;29.60;12.88;;;0.20;99.90;;;;;;5036474;28;20048;-65
2023/12/04 05:55:13;;;;;;;32.50;12.77;;;0.20;99.90;;;;;;5037263;28;20074;-67
2023/12/04 05:57:39;;;;;;;32.25;13.13;;;0.20;99.90;;;;;;5034444;28;20060;-67
2023/12/04 06:00:12;;;;;;;26.63;11.90;;;0.20;99.90;;;;;;5016125;28;20529;-69
2023/12/04 06:02:38;;;;;;;32.42;13.02;;;0.20;99.90;;;;;;5052566;28;20084;-65
2023/12/04 06:05:04;;;;;;;32.00;13.35;;;0.30;99.90;;;;;;5037460;28;20128;-67
2023/12/04 06:07:30;;;;;;;32.90;13.90;;;0.30;99.90;;;;;;5041111;28;20049;-68
2023/12/04 06:09:56;;;;;;;31.83;11.55;;;0.30;99.90;;;;;;5019718;28;20175;-67
2023/12/04 06:12:21;;;;;;;28.00;12.20;;;0.20;99.90;;;;;;5019255;28;20037;-68
2023/12/04 06:14:47;;;;;;;31.17;12.07;;;0.20;99.90;;;;;;5023463;28;20124;-65
2023/12/04 06:17:12;;;;;;;34.03;13.80;;;0.30;99.90;;;;;;5029553;28;20055;-66
2023/12/04 06:19:38;;;;;;;31.50;13.73;;;0.20;99.90;;;;;;5035301;28;20079;-69
2023/12/04 06:22:04;;;;;;;33.35;13.95;;;0.30;99.90;;;;;;5033136;28;20431;-65
2023/12/04 06:24:30;;;;;;;31.25;13.18;;;0.30;99.90;;;;;;5039149;28;20048;-67
2023/12/04 06:26:57;;;;;;;32.58;13.18;;;0.30;99.90;;;;;;5044756;28;20049;-68
2023/12/04 06:29:23;;;;;;;31.20;13.40;;;0.30;99.90;;;;;;5036744;28;20057;-65
2023/12/04 06:31:49;;;;;;;29.30;13.10;;;0.30;99.90;;;;;;5040043;28;20069;-68
2023/12/04 06:34:15;;;;;;;36.00;13.82;;;0.30;99.90;;;;;;5030246;28;20051;-67
2023/12/04 06:36:40;;;;;;;27.08;11.15;;;0.20;99.90;;;;;;5028834;28;20449;-68
2023/12/04 06:39:13;;;;;;;30.90;12.95;;;0.30;99.90;;;;;;5018195;28;20098;-66
2023/12/04 06:41:43;;;;;;;31.83;12.63;;;0.30;99.90;;;;;;5023246;28;20041;-66
2023/12/04 06:44:10;;;;;;;28.00;12.35;;;0.30;99.90;;;;;;5042544;28;20104;-68
2023/12/04 06:46:40;;;;;;;32.38;13.00;;;0.20;99.90;;;;;;5031977;28;20037;-68
2023/12/04 06:49:07;;;;;;;32.20;12.80;;;0.20;99.90;;;;;;5027088;28;20045;-67
2023/12/04 06:51:33;;;;;;;31.90;12.85;;;0.20;99.90;;;;;;5028621;28;20092;-67
2023/12/04 06:53:58;;;;;;;27.85;12.20;;;0.20;99.90;;;;;;5033589;28;20064;-69
2023/12/04 06:56:27;;;;;;;31.25;11.75;;;0.20;99.90;;;;;;5032092;28;20131;-69
2023/12/04 06:58:53;;;;;;;30.90;12.48;;;0.20;99.90;;;;;;5017293;28;20125;-69
2023/12/04 07:01:19;;;;;;;30.67;13.15;;;0.20;99.90;;;;;;5044078;28;20119;-68
2023/12/04 07:03:44;;;;;;;26.58;11.82;;;0.20;99.90;;;;;;5046615;28;20037;-68
2023/12/04 07:06:10;;;;;;;25.77;11.60;;;0.20;99.90;;;;;;5039199;28;20401;-68
2023/12/04 07:08:36;;;;;;;30.58;11.88;;;0.20;99.90;;;;;;5027923;28;20124;-68
2023/12/04 07:11:02;;;;;;;27.45;12.23;;;0.20;99.90;;;;;;5037365;28;20645;-66
2023/12/04 07:13:28;;;;;;;30.52;11.80;;;0.20;99.90;;;;;;5033304;28;20033;-69
2023/12/04 07:15:53;;;;;;;30.30;12.10;;;0.20;99.90;;;;;;5050119;28;20041;-71
2023/12/04 07:18:19;;;;;;;25.27;11.52;;;0.20;99.90;;;;;;5032061;28;20044;-67
2023/12/04 07:20:45;;;;;;;28.75;11.55;;;0.20;99.90;;;;;;5026323;28;20042;-65
2023/12/04 07:23:11;;;;;;;25.85;11.57;;;0.20;99.90;;;;;;5049008;28;20033;-68
2023/12/04 07:25:36;;;;;;;26.90;11.73;;;0.20;99.90;;;;;;5028918;28;20041;-68
2023/12/04 07:28:02;;;;;;;28.30;12.10;;;0.20;99.90;;;;;;5047966;28;20044;-67
2023/12/04 07:30:27;;;;;;;26.77;11.75;;;0.20;99.90;;;;;;5031395;28;20152;-69
2023/12/04 07:32:53;;;;;;;24.58;10.75;;;0.20;99.90;;;;;;5048189;28;20109;-68
2023/12/04 07:35:19;;;;;;;25.42;11.50;;;0.20;99.90;;;;;;5049046;28;20041;-71
2023/12/04 07:37:44;;;;;;;29.55;11.82;;;0.20;99.90;;;;;;5048601;28;20088;-67
2023/12/04 07:40:10;;;;;;;23.63;11.05;;;0.20;99.90;;;;;;5047340;28;20119;-67
2023/12/04 07:42:37;;;;;;;23.75;10.50;;;0.20;99.90;;;;;;5046104;28;20051;-68
2023/12/04 07:45:03;;;;;;;25.48;10.23;;;0.20;99.90;;;;;;5042083;28;20037;-69
2023/12/04 07:47:29;;;;;;;25.75;11.15;;;0.20;99.90;;;;;;5037249;28;20576;-69
2023/12/04 07:49:54;;;;;;;24.23;10.77;;;0.20;99.90;;;;;;5037582;28;20045;-69
2023/12/04 07:52:20;;;;;;;24.58;10.82;;;0.20;99.90;;;;;;5034852;28;20103;-69
2023/12/04 07:54:46;;;;;;;23.00;10.77;;;0.20;99.90;;;;;;5039506;28;20154;-68
2023/12/04 07:57:11;;;;;;;23.92;10.25;;;0.20;99.90;;;;;;5036794;28;20484;-68
2023/12/04 07:59:37;;;;;;;23.52;9.52;;;0.20;99.90;;;;;;5025079;28;20037;-68
2023/12/04 08:02:03;;;;;;;22.50;10.20;;;0.20;99.90;;;;;;5040326;28;20045;-68
2023/12/04 08:04:28;;;;;;;24.15;10.57;;;0.20;99.90;;;;;;5049762;28;20041;-67
2023/12/04 08:06:54;;;;;;;22.38;10.18;;;0.20;99.90;;;;;;5033106;28;20106;-70
2023/12/04 08:09:20;;;;;;;22.60;9.05;;;0.20;99.90;;;;;;5042469;28;20119;-70
2023/12/04 08:11:46;;;;;;;22.30;11.13;;;0.20;99.90;;;;;;5043023;28;20040;-70
2023/12/04 08:14:12;;;;;;;23.70;11.00;;;0.20;99.90;;;;;;5048871;28;20090;-67
2023/12/04 08:16:37;;;;;;;22.17;9.60;;;0.20;99.90;;;;;;5033435;28;20454;-69
2023/12/04 08:19:03;;;;;;;27.55;11.20;;;0.20;99.90;;;;;;5034486;28;20444;-69
2023/12/04 08:21:29;;;;;;;22.65;10.45;;;0.20;99.90;;;;;;5040072;28;20053;-70
2023/12/04 08:23:54;;;;;;;21.42;9.68;;;0.20;99.90;;;;;;5049228;28;20033;-70
2023/12/04 08:26:24;;;;;;;20.10;9.80;;;0.20;99.90;;;;;;5045922;28;20469;-68
2023/12/04 08:28:50;;;;;;;19.90;9.35;;;0.20;99.90;;;;;;5037352;28;20152;-69
2023/12/04 08:31:17;;;;;;;23.85;10.45;;;0.30;99.90;;;;;;5039237;28;20410;-69
2023/12/04 08:33:42;;;;;;;21.73;9.68;;;0.30;99.90;;;;;;5049534;28;20029;-69
2023/12/04 08:36:08;;;;;;;22.80;9.90;;;0.30;99.90;;;;;;5033917;28;20194;-70
2023/12/04 08:38:34;;;;;;;20.60;9.65;;;0.30;99.90;;;;;;5025330;28;20037;-69
2023/12/04 08:41:00;;;;;;;20.13;9.30;;;0.30;99.90;;;;;;5029890;28;20072;-69
2023/12/04 08:43:25;;;;;;;21.83;9.48;;;0.30;99.90;;;;;;5045177;28;20067;-68
2023/12/04 08:45:51;;;;;;;19.17;9.32;;;0.30;99.90;;;;;;5035062;28;20367;-70
2023/12/04 08:48:16;;;;;;;22.35;9.07;;;0.30;99.90;;;;;;5035610;28;20638;-68
2023/12/04 08:50:42;;;;;;;19.25;8.85;;;0.30;99.90;;;;;;5037756;28;20059;-68
2023/12/04 08:53:08;;;;;;;19.75;9.40;;;0.30;99.90;;;;;;5020306;28;20464;-68
2023/12/04 08:55:33;;;;;;;20.75;9.68;;;0.30;99.90;;;;;;5036587;28;20441;-69
2023/12/04 08:58:00;;;;;;;19.15;8.27;;;0.30;99.90;;;;;;5029832;28;20041;-68
2023/12/04 09:00:25;;;;;;;20.00;9.05;;;0.30;99.90;;;;;;5041103;28;20046;-68
2023/12/04 09:02:51;;;;;;;19.90;8.68;;;0.30;99.90;;;;;;5033375;28;20041;-68
2023/12/04 09:05:17;;;;;;;19.17;8.82;;;0.40;99.90;;;;;;5035060;28;20033;-69
2023/12/04 09:07:42;;;;;;;19.20;9.00;;;0.40;99.90;;;;;;5039406;28;20078;-68
2023/12/04 09:10:09;;;;;;;17.75;8.75;;;0.40;99.90;;;;;;5031084;28;20048;-70
2023/12/04 09:12:36;;;;;;;21.67;9.38;;;0.40;99.90;;;;;;5041038;28;20461;-68
2023/12/04 09:15:03;;;;;;;17.20;8.57;;;0.40;99.90;;;;;;5045024;28;20033;-69
2023/12/04 09:17:28;;;;;;;18.27;7.55;;;0.40;99.90;;;;;;5039307;28;20072;-71
2023/12/04 09:19:54;;;;;;;20.90;8.95;;;0.50;99.90;;;;;;5029219;28;20037;-70
2023/12/04 09:22:20;;;;;;;17.92;8.93;;;0.40;99.90;;;;;;5033955;28;20052;-70
2023/12/04 09:24:45;;;;;;;19.92;8.10;;;0.50;99.90;;;;;;5033457;28;20061;-70
2023/12/04 09:27:11;;;;;;;18.48;8.95;;;0.50;99.90;;;;;;5048436;28;20481;-70
2023/12/04 09:29:37;;;;;;;17.40;8.50;;;0.50;99.90;;;;;;5026683;28;20490;-69
2023/12/04 09:32:03;;;;;;;18.88;8.13;;;0.50;99.90;;;;;;5030571;28;20045;-69
2023/12/04 09:34:29;;;;;;;17.85;7.53;;;0.60;99.90;;;;;;5047135;28;20043;-68
2023/12/04 09:36:54;;;;;;;15.00;7.18;;;0.60;99.90;;;;;;5048913;28;20041;-71
2023/12/04 09:39:21;;;;;;;15.02;7.80;;;0.60;99.90;;;;;;5029118;28;20441;-70
2023/12/04 09:41:47;;;;;;;19.45;8.27;;;0.60;99.90;;;;;;5029495;28;20086;-71
2023/12/04 09:44:13;;;;;;;17.38;7.57;;;0.60;99.90;;;;;;5049313;28;20076;-70
2023/12/04 09:46:39;;;;;;;17.48;7.45;;;0.60;99.90;;;;;;5034939;28;20662;-70
2023/12/04 09:49:05;;;;;;;16.23;7.82;;;0.60;99.90;;;;;;5028497;28;20040;-69
2023/12/04 09:51:31;;;;;;;13.98;6.72;;;0.70;99.90;;;;;;5032136;28;20371;-70
2023/12/04 09:54:01;;;;;;;17.92;8.25;;;0.70;99.90;;;;;;5037320;28;20044;-69
2023/12/04 09:56:28;;;;;;;16.35;7.78;;;0.70;99.90;;;;;;5041640;28;20444;-70
2023/12/04 09:59:00;;;;;;;15.73;7.53;;;0.80;99.90;;;;;;5044042;28;20095;-71
2023/12/04 10:01:28;;;;;;;14.80;7.38;;;0.80;99.90;;;;;;5030741;28;20059;-68
2023/12/04 10:03:57;;;;;;;15.90;7.72;;;0.80;99.90;;;;;;5034636;28;20044;-68
2023/12/04 10:06:26;;;;;;;15.15;7.20;;;0.80;99.90;;;;;;5032180;28;20116;-71
2023/12/04 10:08:51;;;;;;;15.30;7.07;;;0.80;99.90;;;;;;5024263;28;20046;-70
2023/12/04 10:11:17;;;;;;;13.77;7.10;;;0.90;99.90;;;;;;5012513;28;20071;-70
2023/12/04 10:13:43;;;;;;;14.63;7.53;;;0.90;99.90;;;;;;5027907;28;20037;-71
2023/12/04 10:16:09;;;;;;;15.23;7.05;;;0.90;99.90;;;;;;5030024;28;20040;-72
2023/12/04 10:18:34;;;;;;;18.23;7.15;;;0.90;99.90;;;;;;5027598;28;20513;-71
2023/12/04 10:21:02;;;;;;;16.23;8.00;;;0.90;99.90;;;;;;5011816;28;20030;-69
2023/12/04 10:23:42;;;;;;;13.90;6.20;;;0.90;99.90;;;;;;5035410;28;20041;-70
2023/12/04 10:26:08;;;;;;;12.15;6.78;;;0.90;99.90;;;;;;5030954;28;20431;-70
2023/12/04 10:28:37;;;;;;;15.35;6.53;;;1.00;99.90;;;;;;5048364;28;20076;-69
2023/12/04 10:31:06;;;;;;;14.32;7.68;;;0.90;99.90;;;;;;5040916;28;20033;-70
2023/12/04 10:33:32;;;;;;;12.93;6.32;;;1.00;99.90;;;;;;5033929;28;20462;-70
2023/12/04 10:35:58;;;;;;;14.25;6.95;;;1.00;99.90;;;;;;5021097;28;20102;-73
2023/12/04 10:38:23;;;;;;;13.55;6.60;;;1.00;99.90;;;;;;5049130;28;20049;-72
2023/12/04 10:40:49;;;;;;;14.45;6.22;;;1.00;99.90;;;;;;5030885;28;20119;-70
2023/12/04 10:43:20;;;;;;;13.80;6.75;;;1.00;99.90;;;;;;5029834;28;20128;-70
2023/12/04 10:45:48;;;;;;;13.93;6.53;;;1.00;99.90;;;;;;5041473;28;20132;-72
2023/12/04 10:48:15;;;;;;;13.50;6.88;;;1.00;99.90;;;;;;5046023;28;20099;-73
2023/12/04 10:50:43;;;;;;;13.45;6.43;;;1.00;99.90;;;;;;5047795;28;20084;-73
2023/12/04 10:53:11;;;;;;;13.77;7.05;;;1.00;99.90;;;;;;5047781;28;20040;-74
2023/12/04 10:55:37;;;;;;;12.60;6.93;;;1.00;99.90;;;;;;5035856;28;20056;-71
2023/12/04 10:58:26;;;;;;;13.80;6.38;;;1.00;99.90;;;;;;5028458;28;20374;-73
2023/12/04 11:00:54;;;;;;;15.85;6.97;;;1.00;99.90;;;;;;5032156;28;20052;-71
2023/12/04 11:03:52;;;;;;;14.65;6.88;;;1.00;99.90;;;;;;5026906;28;20033;-75
2023/12/04 11:06:20;;;;;;;15.38;6.90;;;1.00;99.90;;;;;;5021248;28;20156;-73
2023/12/04 11:08:48;;;;;;;11.63;6.13;;;1.00;99.90;;;;;;5046575;28;20076;-74
2023/12/04 11:11:19;;;;;;;12.88;6.53;;;1.00;99.90;;;;;;5026360;28;20029;-74
2023/12/04 11:13:50;;;;;;;12.07;6.90;;;1.00;99.90;;;;;;5025882;28;20133;-73
2023/12/04 11:16:27;;;;;;;15.13;6.88;;;1.00;99.90;;;;;;5042446;28;20029;-75
2023/12/04 11:19:10;;;;;;;14.85;7.25;;;1.00;99.90;;;;;;5041793;28;20041;-74
2023/12/04 11:21:38;;;;;;;12.85;7.60;;;1.10;99.90;;;;;;5046737;28;20586;-73
2023/12/04 11:24:05;;;;;;;15.20;7.75;;;1.10;99.90;;;;;;5025391;28;20033;-72
2023/12/04 11:26:32;;;;;;;16.55;8.38;;;1.10;99.90;;;;;;5040293;28;22283;-74
2023/12/04 11:28:58;;;;;;;13.65;6.95;;;1.10;99.90;;;;;;5040804;28;20373;-71
2023/12/04 11:31:25;;;;;;;13.52;7.15;;;1.10;99.90;;;;;;5043741;28;20132;-72
2023/12/04 11:33:50;;;;;;;12.32;7.05;;;1.00;99.90;;;;;;5015704;28;20038;-72
2023/12/04 11:36:16;;;;;;;11.80;5.80;;;1.00;99.90;;;;;;5040301;28;20311;-72
2023/12/04 11:38:46;;;;;;;16.35;7.10;;;1.10;99.90;;;;;;5042159;28;20129;-73
2023/12/04 11:41:17;;;;;;;;;;;1.10;99.90;;;;;;5042346;28;20133;-71
2023/12/04 11:43:43;;;;;;;13.93;6.63;;;1.10;99.90;;;;;;5027413;28;19926;-71
2023/12/04 11:46:10;;;;;;;13.73;6.65;;;1.10;99.90;;;;;;5038327;28;20033;-72
2023/12/04 11:48:39;;;;;;;11.85;6.32;;;1.10;99.90;;;;;;5010635;28;20045;-71
2023/12/04 11:51:08;;;;;;;13.60;6.35;;;1.20;99.90;;;;;;5027387;28;20128;-74
2023/12/04 11:53:40;;;;;;;10.23;6.50;;;1.20;99.90;;;;;;5014714;28;20405;-71
2023/12/04 11:56:11;;;;;;;14.77;6.40;;;1.20;99.90;;;;;;5026735;28;20044;-71
2023/12/04 11:58:45;;;;;;;13.52;6.25;;;1.20;99.90;;;;;;5031682;28;20523;-71
2023/12/04 12:01:11;;;;;;;9.80;6.20;;;1.20;99.90;;;;;;5033731;28;20055;-71
2023/12/04 12:03:37;;;;;;;13.07;5.85;;;1.20;99.90;;;;;;5047023;28;20036;-72
2023/12/04 12:06:04;;;;;;;11.85;6.00;;;1.30;99.90;;;;;;5017880;28;20033;-72
2023/12/04 12:08:29;;;;;;;12.27;5.90;;;1.30;99.90;;;;;;5037834;28;20124;-72
2023/12/04 12:10:56;;;;;;;11.57;6.10;;;1.30;99.90;;;;;;5037316;28;20584;-71
2023/12/04 12:13:23;;;;;;;13.48;6.45;;;1.30;99.90;;;;;;5045148;28;20096;-73
2023/12/04 12:15:52;;;;;;;13.02;6.70;;;1.30;99.90;;;;;;5029507;28;20071;-72
2023/12/04 12:18:18;;;;;;;13.43;6.60;;;1.40;99.90;;;;;;5047956;28;20148;-70
2023/12/04 12:20:44;;;;;;;13.18;6.80;;;1.40;99.90;;;;;;5028499;28;20045;-72
2023/12/04 12:23:09;;;;;;;13.27;7.00;;;1.40;99.90;;;;;;5019505;28;20388;-72
2023/12/04 12:25:38;;;;;;;11.93;6.07;;;1.40;99.90;;;;;;5031870;28;20035;-71
2023/12/04 12:28:05;;;;;;;12.23;6.60;;;1.40;99.90;;;;;;5025216;28;20444;-73
2023/12/04 12:30:30;;;;;;;11.25;6.07;;;1.40;99.90;;;;;;5022902;28;20123;-71
2023/12/04 12:32:57;;;;;;;11.75;6.43;;;1.40;99.90;;;;;;5017464;28;20041;-74
2023/12/04 12:35:23;;;;;;;11.32;6.13;;;1.40;99.90;;;;;;5023425;28;20381;-72